sensor_id;sensor_type;location;lat;lon;timestamp;P1;durP1;ratioP1;P2;durP2;ratioP2
68192;SDS011;55012;47.562;18.414;2022-07-06T00:01:39;8.95;;;6.88;;
68192;SDS011;55012;47.562;18.414;2022-07-06T00:04:05;9.85;;;7.43;;
68192;SDS011;55012;47.562;18.414;2022-07-06T00:06:31;11.10;;;7.38;;
68192;SDS011;55012;47.562;18.414;2022-07-06T00:08:56;7.95;;;7.13;;
68192;SDS011;55012;47.562;18.414;2022-07-06T00:11:22;9.05;;;7.38;;
68192;SDS011;55012;47.562;18.414;2022-07-06T00:13:48;8.23;;;7.40;;
68192;SDS011;55012;47.562;18.414;2022-07-06T00:16:14;9.07;;;7.60;;
68192;SDS011;55012;47.562;18.414;2022-07-06T00:18:40;8.32;;;7.40;;
68192;SDS011;55012;47.562;18.414;2022-07-06T00:21:06;9.63;;;7.50;;
68192;SDS011;55012;47.562;18.414;2022-07-06T00:23:31;8.73;;;7.43;;
68192;SDS011;55012;47.562;18.414;2022-07-06T00:25:57;8.80;;;7.90;;
68192;SDS011;55012;47.562;18.414;2022-07-06T00:28:22;10.95;;;8.18;;
68192;SDS011;55012;47.562;18.414;2022-07-06T00:30:48;11.40;;;7.88;;
68192;SDS011;55012;47.562;18.414;2022-07-06T00:33:13;11.13;;;8.55;;
68192;SDS011;55012;47.562;18.414;2022-07-06T00:35:39;12.48;;;8.05;;
68192;SDS011;55012;47.562;18.414;2022-07-06T00:38:04;12.40;;;8.30;;
68192;SDS011;55012;47.562;18.414;2022-07-06T00:40:29;9.48;;;8.20;;
68192;SDS011;55012;47.562;18.414;2022-07-06T00:42:55;14.15;;;8.77;;
68192;SDS011;55012;47.562;18.414;2022-07-06T00:45:21;12.40;;;9.02;;
68192;SDS011;55012;47.562;18.414;2022-07-06T00:47:47;12.80;;;8.93;;
68192;SDS011;55012;47.562;18.414;2022-07-06T00:50:13;10.93;;;8.73;;
68192;SDS011;55012;47.562;18.414;2022-07-06T00:52:47;14.00;;;9.73;;
68192;SDS011;55012;47.562;18.414;2022-07-06T00:55:18;11.25;;;8.75;;
68192;SDS011;55012;47.562;18.414;2022-07-06T00:57:44;11.93;;;9.52;;
68192;SDS011;55012;47.562;18.414;2022-07-06T01:00:11;12.75;;;9.80;;
68192;SDS011;55012;47.562;18.414;2022-07-06T01:02:39;12.05;;;9.13;;
68192;SDS011;55012;47.562;18.414;2022-07-06T01:05:06;11.13;;;9.80;;
68192;SDS011;55012;47.562;18.414;2022-07-06T01:07:33;12.43;;;9.70;;
68192;SDS011;55012;47.562;18.414;2022-07-06T01:09:59;15.48;;;10.40;;
68192;SDS011;55012;47.562;18.414;2022-07-06T01:12:24;11.85;;;9.30;;
68192;SDS011;55012;47.562;18.414;2022-07-06T01:14:50;12.73;;;8.98;;
68192;SDS011;55012;47.562;18.414;2022-07-06T01:17:16;11.18;;;9.07;;
68192;SDS011;55012;47.562;18.414;2022-07-06T01:19:42;11.57;;;9.30;;
68192;SDS011;55012;47.562;18.414;2022-07-06T01:22:08;11.13;;;9.30;;
68192;SDS011;55012;47.562;18.414;2022-07-06T01:24:35;15.48;;;9.55;;
68192;SDS011;55012;47.562;18.414;2022-07-06T01:27:01;11.27;;;9.20;;
68192;SDS011;55012;47.562;18.414;2022-07-06T01:29:27;11.63;;;9.30;;
68192;SDS011;55012;47.562;18.414;2022-07-06T01:31:53;12.55;;;9.20;;
68192;SDS011;55012;47.562;18.414;2022-07-06T01:34:18;11.15;;;9.20;;
68192;SDS011;55012;47.562;18.414;2022-07-06T01:36:45;10.52;;;8.85;;
68192;SDS011;55012;47.562;18.414;2022-07-06T01:39:11;11.93;;;9.30;;
68192;SDS011;55012;47.562;18.414;2022-07-06T01:41:37;14.27;;;9.18;;
68192;SDS011;55012;47.562;18.414;2022-07-06T01:44:03;12.02;;;9.15;;
68192;SDS011;55012;47.562;18.414;2022-07-06T01:46:29;11.48;;;8.90;;
68192;SDS011;55012;47.562;18.414;2022-07-06T01:48:55;11.18;;;8.98;;
68192;SDS011;55012;47.562;18.414;2022-07-06T01:51:21;14.45;;;9.02;;
68192;SDS011;55012;47.562;18.414;2022-07-06T01:53:47;11.40;;;9.00;;
68192;SDS011;55012;47.562;18.414;2022-07-06T01:56:13;12.73;;;9.43;;
68192;SDS011;55012;47.562;18.414;2022-07-06T01:58:38;14.23;;;9.05;;
68192;SDS011;55012;47.562;18.414;2022-07-06T02:01:08;13.57;;;9.35;;
68192;SDS011;55012;47.562;18.414;2022-07-06T02:03:34;12.80;;;9.68;;
68192;SDS011;55012;47.562;18.414;2022-07-06T02:06:00;12.27;;;8.73;;
68192;SDS011;55012;47.562;18.414;2022-07-06T02:08:26;12.07;;;9.43;;
68192;SDS011;55012;47.562;18.414;2022-07-06T02:10:52;11.82;;;9.48;;
68192;SDS011;55012;47.562;18.414;2022-07-06T02:13:17;14.70;;;9.68;;
68192;SDS011;55012;47.562;18.414;2022-07-06T02:15:43;13.75;;;9.95;;
68192;SDS011;55012;47.562;18.414;2022-07-06T02:18:08;11.68;;;9.32;;
68192;SDS011;55012;47.562;18.414;2022-07-06T02:20:34;13.20;;;9.20;;
68192;SDS011;55012;47.562;18.414;2022-07-06T02:22:59;12.88;;;8.68;;
68192;SDS011;55012;47.562;18.414;2022-07-06T02:25:24;10.45;;;8.18;;
68192;SDS011;55012;47.562;18.414;2022-07-06T02:27:50;12.60;;;8.98;;
68192;SDS011;55012;47.562;18.414;2022-07-06T02:30:15;10.93;;;8.55;;
68192;SDS011;55012;47.562;18.414;2022-07-06T02:32:41;10.63;;;9.00;;
68192;SDS011;55012;47.562;18.414;2022-07-06T02:35:08;12.57;;;9.43;;
68192;SDS011;55012;47.562;18.414;2022-07-06T02:37:33;20.13;;;8.77;;
68192;SDS011;55012;47.562;18.414;2022-07-06T02:39:59;12.32;;;9.07;;
68192;SDS011;55012;47.562;18.414;2022-07-06T02:42:25;13.02;;;9.40;;
68192;SDS011;55012;47.562;18.414;2022-07-06T02:44:52;12.85;;;9.50;;
68192;SDS011;55012;47.562;18.414;2022-07-06T02:47:18;16.55;;;10.75;;
68192;SDS011;55012;47.562;18.414;2022-07-06T02:49:43;12.43;;;9.25;;
68192;SDS011;55012;47.562;18.414;2022-07-06T02:52:09;11.20;;;8.80;;
68192;SDS011;55012;47.562;18.414;2022-07-06T02:54:34;12.93;;;8.88;;
68192;SDS011;55012;47.562;18.414;2022-07-06T02:57:00;12.55;;;8.68;;
68192;SDS011;55012;47.562;18.414;2022-07-06T02:59:25;11.38;;;9.40;;
68192;SDS011;55012;47.562;18.414;2022-07-06T03:01:51;13.57;;;8.98;;
68192;SDS011;55012;47.562;18.414;2022-07-06T03:04:16;13.00;;;8.77;;
68192;SDS011;55012;47.562;18.414;2022-07-06T03:06:42;11.55;;;8.70;;
68192;SDS011;55012;47.562;18.414;2022-07-06T03:09:07;11.68;;;8.90;;
68192;SDS011;55012;47.562;18.414;2022-07-06T03:11:33;13.30;;;9.60;;
68192;SDS011;55012;47.562;18.414;2022-07-06T03:14:01;12.38;;;9.10;;
68192;SDS011;55012;47.562;18.414;2022-07-06T03:16:28;13.20;;;9.70;;
68192;SDS011;55012;47.562;18.414;2022-07-06T03:18:54;12.15;;;9.73;;
68192;SDS011;55012;47.562;18.414;2022-07-06T03:21:19;12.68;;;9.68;;
68192;SDS011;55012;47.562;18.414;2022-07-06T03:23:45;12.13;;;9.82;;
68192;SDS011;55012;47.562;18.414;2022-07-06T03:26:10;17.25;;;9.50;;
68192;SDS011;55012;47.562;18.414;2022-07-06T03:28:35;14.23;;;10.30;;
68192;SDS011;55012;47.562;18.414;2022-07-06T03:31:01;16.33;;;10.05;;
68192;SDS011;55012;47.562;18.414;2022-07-06T03:33:26;16.33;;;10.23;;
68192;SDS011;55012;47.562;18.414;2022-07-06T03:35:52;13.80;;;10.45;;
68192;SDS011;55012;47.562;18.414;2022-07-06T03:38:17;17.80;;;10.77;;
68192;SDS011;55012;47.562;18.414;2022-07-06T03:40:43;15.82;;;10.40;;
68192;SDS011;55012;47.562;18.414;2022-07-06T03:43:08;16.05;;;10.43;;
68192;SDS011;55012;47.562;18.414;2022-07-06T03:45:34;14.38;;;10.10;;
68192;SDS011;55012;47.562;18.414;2022-07-06T03:47:59;13.57;;;10.20;;
68192;SDS011;55012;47.562;18.414;2022-07-06T03:50:25;14.60;;;10.45;;
68192;SDS011;55012;47.562;18.414;2022-07-06T03:52:50;11.30;;;9.65;;
68192;SDS011;55012;47.562;18.414;2022-07-06T03:55:16;10.13;;;8.27;;
68192;SDS011;55012;47.562;18.414;2022-07-06T03:57:41;10.35;;;6.68;;
68192;SDS011;55012;47.562;18.414;2022-07-06T04:00:08;10.57;;;7.15;;
68192;SDS011;55012;47.562;18.414;2022-07-06T04:02:34;10.57;;;6.88;;
68192;SDS011;55012;47.562;18.414;2022-07-06T04:04:59;6.20;;;5.22;;
68192;SDS011;55012;47.562;18.414;2022-07-06T04:07:25;8.88;;;7.53;;
68192;SDS011;55012;47.562;18.414;2022-07-06T04:09:50;9.30;;;6.63;;
68192;SDS011;55012;47.562;18.414;2022-07-06T04:12:16;7.65;;;6.75;;
68192;SDS011;55012;47.562;18.414;2022-07-06T04:14:42;8.40;;;6.50;;
68192;SDS011;55012;47.562;18.414;2022-07-06T04:17:07;11.63;;;7.65;;
68192;SDS011;55012;47.562;18.414;2022-07-06T04:19:51;13.85;;;7.85;;
68192;SDS011;55012;47.562;18.414;2022-07-06T04:22:17;11.80;;;9.00;;
68192;SDS011;55012;47.562;18.414;2022-07-06T04:24:42;13.57;;;9.32;;
68192;SDS011;55012;47.562;18.414;2022-07-06T04:27:08;17.05;;;9.85;;
68192;SDS011;55012;47.562;18.414;2022-07-06T04:29:33;12.85;;;9.50;;
68192;SDS011;55012;47.562;18.414;2022-07-06T04:31:59;10.88;;;9.10;;
68192;SDS011;55012;47.562;18.414;2022-07-06T04:34:24;12.38;;;9.63;;
68192;SDS011;55012;47.562;18.414;2022-07-06T04:36:49;11.73;;;9.02;;
68192;SDS011;55012;47.562;18.414;2022-07-06T04:39:15;14.07;;;9.77;;
68192;SDS011;55012;47.562;18.414;2022-07-06T04:41:40;12.75;;;9.75;;
68192;SDS011;55012;47.562;18.414;2022-07-06T04:44:06;13.45;;;9.70;;
68192;SDS011;55012;47.562;18.414;2022-07-06T04:46:31;13.18;;;9.70;;
68192;SDS011;55012;47.562;18.414;2022-07-06T04:48:57;12.55;;;9.32;;
68192;SDS011;55012;47.562;18.414;2022-07-06T04:51:22;12.20;;;9.25;;
68192;SDS011;55012;47.562;18.414;2022-07-06T04:53:48;12.02;;;9.25;;
68192;SDS011;55012;47.562;18.414;2022-07-06T04:56:13;15.73;;;9.80;;
68192;SDS011;55012;47.562;18.414;2022-07-06T04:58:38;12.68;;;10.25;;
68192;SDS011;55012;47.562;18.414;2022-07-06T05:01:04;12.50;;;10.05;;
68192;SDS011;55012;47.562;18.414;2022-07-06T05:03:29;12.32;;;9.40;;
68192;SDS011;55012;47.562;18.414;2022-07-06T05:05:55;13.55;;;9.73;;
68192;SDS011;55012;47.562;18.414;2022-07-06T05:08:20;13.75;;;9.80;;
68192;SDS011;55012;47.562;18.414;2022-07-06T05:10:47;12.25;;;9.00;;
68192;SDS011;55012;47.562;18.414;2022-07-06T05:13:13;13.07;;;9.82;;
68192;SDS011;55012;47.562;18.414;2022-07-06T05:15:39;11.70;;;9.57;;
68192;SDS011;55012;47.562;18.414;2022-07-06T05:18:04;12.18;;;9.65;;
68192;SDS011;55012;47.562;18.414;2022-07-06T05:20:30;13.20;;;9.52;;
68192;SDS011;55012;47.562;18.414;2022-07-06T05:22:55;12.93;;;9.73;;
68192;SDS011;55012;47.562;18.414;2022-07-06T05:25:21;11.65;;;9.35;;
68192;SDS011;55012;47.562;18.414;2022-07-06T05:27:46;11.90;;;9.82;;
68192;SDS011;55012;47.562;18.414;2022-07-06T05:30:12;14.63;;;9.23;;
68192;SDS011;55012;47.562;18.414;2022-07-06T05:32:38;12.35;;;9.27;;
68192;SDS011;55012;47.562;18.414;2022-07-06T05:35:04;10.60;;;8.80;;
68192;SDS011;55012;47.562;18.414;2022-07-06T05:37:29;12.50;;;9.52;;
68192;SDS011;55012;47.562;18.414;2022-07-06T05:39:55;13.45;;;9.63;;
68192;SDS011;55012;47.562;18.414;2022-07-06T05:42:20;13.25;;;9.43;;
68192;SDS011;55012;47.562;18.414;2022-07-06T05:44:46;13.95;;;10.00;;
68192;SDS011;55012;47.562;18.414;2022-07-06T05:47:11;12.55;;;9.75;;
68192;SDS011;55012;47.562;18.414;2022-07-06T05:49:55;12.03;;;9.10;;
68192;SDS011;55012;47.562;18.414;2022-07-06T05:52:42;12.50;;;9.00;;
68192;SDS011;55012;47.562;18.414;2022-07-06T05:55:10;14.13;;;9.68;;
68192;SDS011;55012;47.562;18.414;2022-07-06T05:57:38;14.32;;;9.88;;
68192;SDS011;55012;47.562;18.414;2022-07-06T06:00:08;12.45;;;9.20;;
68192;SDS011;55012;47.562;18.414;2022-07-06T06:02:40;12.18;;;9.82;;
68192;SDS011;55012;47.562;18.414;2022-07-06T06:05:07;11.45;;;9.57;;
68192;SDS011;55012;47.562;18.414;2022-07-06T06:07:34;12.65;;;10.85;;
68192;SDS011;55012;47.562;18.414;2022-07-06T06:10:01;11.25;;;9.48;;
68192;SDS011;55012;47.562;18.414;2022-07-06T06:12:31;12.90;;;9.13;;
68192;SDS011;55012;47.562;18.414;2022-07-06T06:14:57;11.70;;;9.32;;
68192;SDS011;55012;47.562;18.414;2022-07-06T06:17:22;13.02;;;8.55;;
68192;SDS011;55012;47.562;18.414;2022-07-06T06:19:48;11.85;;;8.50;;
68192;SDS011;55012;47.562;18.414;2022-07-06T06:22:13;11.25;;;9.35;;
68192;SDS011;55012;47.562;18.414;2022-07-06T06:24:39;12.15;;;9.05;;
68192;SDS011;55012;47.562;18.414;2022-07-06T06:27:05;11.27;;;9.07;;
68192;SDS011;55012;47.562;18.414;2022-07-06T06:29:30;11.70;;;8.23;;
68192;SDS011;55012;47.562;18.414;2022-07-06T06:31:55;13.15;;;8.70;;
68192;SDS011;55012;47.562;18.414;2022-07-06T06:34:21;11.18;;;8.88;;
68192;SDS011;55012;47.562;18.414;2022-07-06T06:36:46;11.35;;;9.00;;
68192;SDS011;55012;47.562;18.414;2022-07-06T06:39:12;13.00;;;8.55;;
68192;SDS011;55012;47.562;18.414;2022-07-06T06:41:38;11.95;;;9.20;;
68192;SDS011;55012;47.562;18.414;2022-07-06T06:44:03;12.13;;;9.05;;
68192;SDS011;55012;47.562;18.414;2022-07-06T06:46:29;12.73;;;8.93;;
68192;SDS011;55012;47.562;18.414;2022-07-06T06:48:54;12.05;;;8.80;;
68192;SDS011;55012;47.562;18.414;2022-07-06T06:51:20;11.43;;;8.25;;
68192;SDS011;55012;47.562;18.414;2022-07-06T06:53:46;11.20;;;8.20;;
68192;SDS011;55012;47.562;18.414;2022-07-06T06:56:12;12.07;;;8.60;;
68192;SDS011;55012;47.562;18.414;2022-07-06T06:58:37;10.57;;;8.23;;
68192;SDS011;55012;47.562;18.414;2022-07-06T07:01:03;10.02;;;8.63;;
68192;SDS011;55012;47.562;18.414;2022-07-06T07:03:29;10.45;;;8.77;;
68192;SDS011;55012;47.562;18.414;2022-07-06T07:05:55;14.93;;;8.73;;
68192;SDS011;55012;47.562;18.414;2022-07-06T07:08:20;12.15;;;8.50;;
68192;SDS011;55012;47.562;18.414;2022-07-06T07:10:46;9.25;;;7.70;;
68192;SDS011;55012;47.562;18.414;2022-07-06T07:13:12;9.82;;;8.35;;
68192;SDS011;55012;47.562;18.414;2022-07-06T07:15:37;10.32;;;8.25;;
68192;SDS011;55012;47.562;18.414;2022-07-06T07:18:03;12.98;;;8.77;;
68192;SDS011;55012;47.562;18.414;2022-07-06T07:20:28;11.93;;;9.23;;
68192;SDS011;55012;47.562;18.414;2022-07-06T07:22:55;12.90;;;8.48;;
68192;SDS011;55012;47.562;18.414;2022-07-06T07:25:21;12.00;;;8.73;;
68192;SDS011;55012;47.562;18.414;2022-07-06T07:27:46;14.50;;;9.30;;
68192;SDS011;55012;47.562;18.414;2022-07-06T07:30:12;15.27;;;8.70;;
68192;SDS011;55012;47.562;18.414;2022-07-06T07:32:37;10.77;;;8.60;;
68192;SDS011;55012;47.562;18.414;2022-07-06T07:35:05;10.85;;;8.88;;
68192;SDS011;55012;47.562;18.414;2022-07-06T07:37:31;12.02;;;8.13;;
68192;SDS011;55012;47.562;18.414;2022-07-06T07:39:57;10.98;;;8.70;;
68192;SDS011;55012;47.562;18.414;2022-07-06T07:42:22;11.45;;;8.40;;
68192;SDS011;55012;47.562;18.414;2022-07-06T07:44:48;8.20;;;7.32;;
68192;SDS011;55012;47.562;18.414;2022-07-06T07:47:13;9.02;;;7.47;;
68192;SDS011;55012;47.562;18.414;2022-07-06T07:49:39;8.95;;;7.10;;
68192;SDS011;55012;47.562;18.414;2022-07-06T07:52:04;9.68;;;7.70;;
68192;SDS011;55012;47.562;18.414;2022-07-06T07:54:30;10.65;;;8.48;;
68192;SDS011;55012;47.562;18.414;2022-07-06T07:56:56;10.82;;;7.50;;
68192;SDS011;55012;47.562;18.414;2022-07-06T07:59:21;10.02;;;7.57;;
68192;SDS011;55012;47.562;18.414;2022-07-06T08:01:47;9.80;;;8.32;;
68192;SDS011;55012;47.562;18.414;2022-07-06T08:04:13;9.23;;;7.80;;
68192;SDS011;55012;47.562;18.414;2022-07-06T08:06:38;9.15;;;7.32;;
68192;SDS011;55012;47.562;18.414;2022-07-06T08:09:04;10.10;;;7.50;;
68192;SDS011;55012;47.562;18.414;2022-07-06T08:11:32;11.20;;;8.50;;
68192;SDS011;55012;47.562;18.414;2022-07-06T08:13:58;8.85;;;7.10;;
68192;SDS011;55012;47.562;18.414;2022-07-06T08:16:24;10.00;;;7.43;;
68192;SDS011;55012;47.562;18.414;2022-07-06T08:18:49;10.57;;;7.07;;
68192;SDS011;55012;47.562;18.414;2022-07-06T08:21:16;8.95;;;6.85;;
68192;SDS011;55012;47.562;18.414;2022-07-06T08:23:42;8.68;;;6.93;;
68192;SDS011;55012;47.562;18.414;2022-07-06T08:26:08;8.07;;;6.63;;
68192;SDS011;55012;47.562;18.414;2022-07-06T08:28:33;8.65;;;6.88;;
68192;SDS011;55012;47.562;18.414;2022-07-06T08:30:59;8.38;;;6.60;;
68192;SDS011;55012;47.562;18.414;2022-07-06T08:33:24;8.48;;;6.85;;
68192;SDS011;55012;47.562;18.414;2022-07-06T08:35:50;9.82;;;6.70;;
68192;SDS011;55012;47.562;18.414;2022-07-06T08:38:16;8.05;;;7.03;;
68192;SDS011;55012;47.562;18.414;2022-07-06T08:40:41;8.68;;;6.25;;
68192;SDS011;55012;47.562;18.414;2022-07-06T08:43:11;8.85;;;7.32;;
68192;SDS011;55012;47.562;18.414;2022-07-06T08:45:40;10.15;;;6.78;;
68192;SDS011;55012;47.562;18.414;2022-07-06T08:48:08;10.63;;;6.93;;
68192;SDS011;55012;47.562;18.414;2022-07-06T08:50:36;7.40;;;6.60;;
68192;SDS011;55012;47.562;18.414;2022-07-06T08:53:02;6.95;;;5.90;;
68192;SDS011;55012;47.562;18.414;2022-07-06T08:55:28;8.93;;;7.10;;
68192;SDS011;55012;47.562;18.414;2022-07-06T08:57:55;8.30;;;6.30;;
68192;SDS011;55012;47.562;18.414;2022-07-06T09:00:21;7.68;;;6.65;;
68192;SDS011;55012;47.562;18.414;2022-07-06T09:02:50;10.27;;;6.80;;
68192;SDS011;55012;47.562;18.414;2022-07-06T09:05:18;9.32;;;6.55;;
68192;SDS011;55012;47.562;18.414;2022-07-06T09:07:49;9.40;;;6.28;;
68192;SDS011;55012;47.562;18.414;2022-07-06T09:10:17;7.55;;;5.65;;
68192;SDS011;55012;47.562;18.414;2022-07-06T09:12:43;6.20;;;5.47;;
68192;SDS011;55012;47.562;18.414;2022-07-06T09:15:09;8.35;;;6.30;;
68192;SDS011;55012;47.562;18.414;2022-07-06T09:17:37;8.65;;;6.00;;
68192;SDS011;55012;47.562;18.414;2022-07-06T09:20:06;10.45;;;5.32;;
68192;SDS011;55012;47.562;18.414;2022-07-06T09:22:35;7.00;;;5.13;;
68192;SDS011;55012;47.562;18.414;2022-07-06T09:25:09;6.00;;;5.20;;
68192;SDS011;55012;47.562;18.414;2022-07-06T09:27:37;7.72;;;5.13;;
68192;SDS011;55012;47.562;18.414;2022-07-06T09:30:07;5.82;;;5.15;;
68192;SDS011;55012;47.562;18.414;2022-07-06T09:32:40;6.53;;;5.30;;
68192;SDS011;55012;47.562;18.414;2022-07-06T09:35:06;5.43;;;4.90;;
68192;SDS011;55012;47.562;18.414;2022-07-06T09:37:33;4.82;;;4.22;;
68192;SDS011;55012;47.562;18.414;2022-07-06T09:39:58;8.77;;;4.68;;
68192;SDS011;55012;47.562;18.414;2022-07-06T09:42:24;6.05;;;4.35;;
68192;SDS011;55012;47.562;18.414;2022-07-06T09:44:51;6.70;;;5.10;;
68192;SDS011;55012;47.562;18.414;2022-07-06T09:47:18;5.07;;;4.50;;
68192;SDS011;55012;47.562;18.414;2022-07-06T09:49:45;5.00;;;4.03;;
68192;SDS011;55012;47.562;18.414;2022-07-06T09:52:11;6.13;;;4.45;;
68192;SDS011;55012;47.562;18.414;2022-07-06T09:54:37;8.95;;;4.63;;
68192;SDS011;55012;47.562;18.414;2022-07-06T09:57:04;4.85;;;4.22;;
68192;SDS011;55012;47.562;18.414;2022-07-06T09:59:30;6.72;;;4.35;;
68192;SDS011;55012;47.562;18.414;2022-07-06T10:01:58;4.65;;;4.20;;
68192;SDS011;55012;47.562;18.414;2022-07-06T10:04:26;6.10;;;4.03;;
68192;SDS011;55012;47.562;18.414;2022-07-06T10:06:53;4.32;;;3.42;;
68192;SDS011;55012;47.562;18.414;2022-07-06T10:09:19;6.07;;;3.33;;
68192;SDS011;55012;47.562;18.414;2022-07-06T10:11:59;5.40;;;3.03;;
68192;SDS011;55012;47.562;18.414;2022-07-06T10:14:30;3.22;;;2.70;;
68192;SDS011;55012;47.562;18.414;2022-07-06T10:16:57;4.50;;;2.65;;
68192;SDS011;55012;47.562;18.414;2022-07-06T10:19:26;3.13;;;2.80;;
68192;SDS011;55012;47.562;18.414;2022-07-06T10:21:53;7.50;;;3.10;;
68192;SDS011;55012;47.562;18.414;2022-07-06T10:24:19;5.03;;;2.90;;
68192;SDS011;55012;47.562;18.414;2022-07-06T10:26:46;3.78;;;2.72;;
68192;SDS011;55012;47.562;18.414;2022-07-06T10:29:12;3.40;;;3.10;;
68192;SDS011;55012;47.562;18.414;2022-07-06T10:31:47;3.20;;;2.75;;
68192;SDS011;55012;47.562;18.414;2022-07-06T10:34:14;2.65;;;2.33;;
68192;SDS011;55012;47.562;18.414;2022-07-06T10:36:43;2.60;;;2.40;;
68192;SDS011;55012;47.562;18.414;2022-07-06T10:39:13;3.15;;;2.28;;
68192;SDS011;55012;47.562;18.414;2022-07-06T10:41:57;4.13;;;2.60;;
68192;SDS011;55012;47.562;18.414;2022-07-06T10:44:23;3.08;;;1.95;;
68192;SDS011;55012;47.562;18.414;2022-07-06T10:46:51;2.50;;;2.22;;
68192;SDS011;55012;47.562;18.414;2022-07-06T10:49:20;4.35;;;2.30;;
68192;SDS011;55012;47.562;18.414;2022-07-06T10:51:47;3.92;;;2.05;;
68192;SDS011;55012;47.562;18.414;2022-07-06T10:54:14;2.72;;;2.00;;
68192;SDS011;55012;47.562;18.414;2022-07-06T11:04:40;8.55;;;3.50;;
68192;SDS011;55012;47.562;18.414;2022-07-06T11:07:08;3.50;;;3.20;;
68192;SDS011;55012;47.562;18.414;2022-07-06T11:09:35;5.22;;;3.70;;
68192;SDS011;55012;47.562;18.414;2022-07-06T11:12:11;4.72;;;3.70;;
68192;SDS011;55012;47.562;18.414;2022-07-06T11:14:40;4.85;;;3.67;;
68192;SDS011;55012;47.562;18.414;2022-07-06T11:17:06;4.03;;;3.40;;
68192;SDS011;55012;47.562;18.414;2022-07-06T11:19:35;4.72;;;3.15;;
68192;SDS011;55012;47.562;18.414;2022-07-06T11:22:10;6.10;;;3.67;;
68192;SDS011;55012;47.562;18.414;2022-07-06T11:24:36;5.38;;;3.63;;
68192;SDS011;55012;47.562;18.414;2022-07-06T11:27:03;4.20;;;3.53;;
68192;SDS011;55012;47.562;18.414;2022-07-06T11:29:32;3.80;;;3.50;;
68192;SDS011;55012;47.562;18.414;2022-07-06T11:32:00;5.05;;;3.40;;
68192;SDS011;55012;47.562;18.414;2022-07-06T11:34:32;4.20;;;3.17;;
68192;SDS011;55012;47.562;18.414;2022-07-06T11:37:00;4.22;;;3.05;;
68192;SDS011;55012;47.562;18.414;2022-07-06T11:39:30;5.30;;;3.50;;
68192;SDS011;55012;47.562;18.414;2022-07-06T11:41:57;4.20;;;3.30;;
68192;SDS011;55012;47.562;18.414;2022-07-06T11:44:25;5.35;;;3.47;;
68192;SDS011;55012;47.562;18.414;2022-07-06T11:46:51;5.10;;;3.10;;
68192;SDS011;55012;47.562;18.414;2022-07-06T11:49:16;5.05;;;3.28;;
68192;SDS011;55012;47.562;18.414;2022-07-06T11:51:42;3.67;;;3.28;;
68192;SDS011;55012;47.562;18.414;2022-07-06T11:54:10;5.45;;;3.25;;
68192;SDS011;55012;47.562;18.414;2022-07-06T11:59:17;4.43;;;3.05;;
68192;SDS011;55012;47.562;18.414;2022-07-06T12:01:46;4.07;;;3.00;;
68192;SDS011;55012;47.562;18.414;2022-07-06T12:04:12;5.72;;;3.15;;
68192;SDS011;55012;47.562;18.414;2022-07-06T12:06:37;3.00;;;2.47;;
68192;SDS011;55012;47.562;18.414;2022-07-06T12:09:03;6.82;;;2.80;;
68192;SDS011;55012;47.562;18.414;2022-07-06T12:11:33;4.38;;;2.55;;
68192;SDS011;55012;47.562;18.414;2022-07-06T12:14:11;4.22;;;2.80;;
68192;SDS011;55012;47.562;18.414;2022-07-06T12:16:38;3.65;;;2.90;;
68192;SDS011;55012;47.562;18.414;2022-07-06T12:19:05;2.88;;;2.53;;
68192;SDS011;55012;47.562;18.414;2022-07-06T12:21:31;3.50;;;2.47;;
68192;SDS011;55012;47.562;18.414;2022-07-06T12:23:58;4.95;;;2.60;;
68192;SDS011;55012;47.562;18.414;2022-07-06T12:26:25;3.88;;;2.63;;
68192;SDS011;55012;47.562;18.414;2022-07-06T12:29:03;3.90;;;2.80;;
68192;SDS011;55012;47.562;18.414;2022-07-06T12:34:27;5.72;;;2.70;;
68192;SDS011;55012;47.562;18.414;2022-07-06T12:36:59;4.80;;;2.75;;
68192;SDS011;55012;47.562;18.414;2022-07-06T12:39:31;3.10;;;2.55;;
68192;SDS011;55012;47.562;18.414;2022-07-06T12:42:03;5.07;;;2.70;;
68192;SDS011;55012;47.562;18.414;2022-07-06T12:44:29;6.15;;;2.65;;
68192;SDS011;55012;47.562;18.414;2022-07-06T12:49:31;2.88;;;2.55;;
68192;SDS011;55012;47.562;18.414;2022-07-06T12:52:01;3.28;;;2.70;;
68192;SDS011;55012;47.562;18.414;2022-07-06T12:54:36;3.63;;;2.60;;
68192;SDS011;55012;47.562;18.414;2022-07-06T12:57:13;5.90;;;3.10;;
68192;SDS011;55012;47.562;18.414;2022-07-06T12:59:42;3.78;;;2.70;;
68192;SDS011;55012;47.562;18.414;2022-07-06T13:02:31;3.95;;;2.55;;
68192;SDS011;55012;47.562;18.414;2022-07-06T13:04:57;8.02;;;2.85;;
68192;SDS011;55012;47.562;18.414;2022-07-06T13:07:23;3.85;;;3.05;;
68192;SDS011;55012;47.562;18.414;2022-07-06T13:09:50;6.75;;;2.80;;
68192;SDS011;55012;47.562;18.414;2022-07-06T13:12:16;3.50;;;3.10;;
68192;SDS011;55012;47.562;18.414;2022-07-06T13:14:41;3.70;;;2.90;;
68192;SDS011;55012;47.562;18.414;2022-07-06T13:17:07;3.90;;;2.65;;
68192;SDS011;55012;47.562;18.414;2022-07-06T13:19:32;5.07;;;3.00;;
68192;SDS011;55012;47.562;18.414;2022-07-06T13:21:58;5.13;;;2.70;;
68192;SDS011;55012;47.562;18.414;2022-07-06T13:24:23;4.63;;;2.95;;
68192;SDS011;55012;47.562;18.414;2022-07-06T13:26:49;4.18;;;2.65;;
68192;SDS011;55012;47.562;18.414;2022-07-06T13:29:14;3.80;;;2.60;;
68192;SDS011;55012;47.562;18.414;2022-07-06T13:31:40;6.18;;;2.80;;
68192;SDS011;55012;47.562;18.414;2022-07-06T13:34:06;3.58;;;2.60;;
68192;SDS011;55012;47.562;18.414;2022-07-06T13:36:33;4.07;;;2.70;;
68192;SDS011;55012;47.562;18.414;2022-07-06T13:38:59;4.45;;;2.78;;
68192;SDS011;55012;47.562;18.414;2022-07-06T13:41:24;4.63;;;2.67;;
68192;SDS011;55012;47.562;18.414;2022-07-06T13:43:50;4.30;;;2.90;;
68192;SDS011;55012;47.562;18.414;2022-07-06T13:46:16;3.13;;;2.70;;
68192;SDS011;55012;47.562;18.414;2022-07-06T13:48:41;2.90;;;2.60;;
68192;SDS011;55012;47.562;18.414;2022-07-06T13:51:08;8.32;;;2.70;;
68192;SDS011;55012;47.562;18.414;2022-07-06T13:53:33;2.75;;;2.13;;
68192;SDS011;55012;47.562;18.414;2022-07-06T13:55:59;3.13;;;2.30;;
68192;SDS011;55012;47.562;18.414;2022-07-06T13:58:24;3.08;;;1.90;;
68192;SDS011;55012;47.562;18.414;2022-07-06T14:00:50;4.97;;;2.20;;
68192;SDS011;55012;47.562;18.414;2022-07-06T14:03:15;4.68;;;1.90;;
68192;SDS011;55012;47.562;18.414;2022-07-06T14:05:41;4.50;;;2.08;;
68192;SDS011;55012;47.562;18.414;2022-07-06T14:08:06;2.13;;;1.75;;
68192;SDS011;55012;47.562;18.414;2022-07-06T14:10:32;5.35;;;2.00;;
68192;SDS011;55012;47.562;18.414;2022-07-06T14:12:57;2.35;;;1.80;;
68192;SDS011;55012;47.562;18.414;2022-07-06T14:15:23;2.50;;;1.92;;
68192;SDS011;55012;47.562;18.414;2022-07-06T14:17:48;2.67;;;1.83;;
68192;SDS011;55012;47.562;18.414;2022-07-06T14:20:14;2.33;;;1.90;;
68192;SDS011;55012;47.562;18.414;2022-07-06T14:22:40;3.13;;;2.00;;
68192;SDS011;55012;47.562;18.414;2022-07-06T14:25:05;2.88;;;1.95;;
68192;SDS011;55012;47.562;18.414;2022-07-06T14:27:32;2.00;;;1.90;;
68192;SDS011;55012;47.562;18.414;2022-07-06T14:30:01;2.53;;;2.08;;
68192;SDS011;55012;47.562;18.414;2022-07-06T14:32:28;3.95;;;2.00;;
68192;SDS011;55012;47.562;18.414;2022-07-06T14:34:54;3.20;;;2.00;;
68192;SDS011;55012;47.562;18.414;2022-07-06T14:37:19;3.55;;;1.90;;
68192;SDS011;55012;47.562;18.414;2022-07-06T14:39:44;2.28;;;1.98;;
68192;SDS011;55012;47.562;18.414;2022-07-06T14:42:11;2.58;;;1.90;;